Ana Sayfa
METAR-TAF:

METAR-TAF

Havaalanları :

Air Force Base Hoedspruit - Eastgate Airport

Hoedspruit, Güney Afrika

Enlem: 24-21-17S, Boylam: 31-03-01E, yükseklik: 531 m

Güncel hava durumu gözlemi

Rapor saat 13:00 UTC de 59 dakika önce yapıldı.
Sıcaklık 21°C
Nem 49%
Basınç 1027 hPa

METAR: FAHS 081300Z AUTO /////KT //// // ////// 21/10 Q1027

Saat: 15:59 (13:59 UTC)

Tahmin

Rapor saat 09:00 UTC de 4 saat ve 59 dakika önce yapıldı.
Ayın 08'si saat 10 UTC'den ayın 08'si saat 18 UTC'ye kadar geçerli Tahmin
Rüzgar kuzeydan 8 kt
Görüş mesafesi 10 km veya daha fazla
3000 ft yükseklikte parçalı çok bulutlu
Dönüşüyor
ayın 08'si saat 11 UTC'den ayın 08'si saat 13 UTC'ye kadar
4000 ft yükseklikte parçalı bulutlu
Dönüşüyor
ayın 08'si saat 14 UTC'den ayın 08'si saat 16 UTC'ye kadar
Görüş mesafesi 10 km veya daha fazla
1500 m altında bulut yok ve kümülonimbus yok

TAF: FAHS 080900Z 0810/0818 35008KT 9999 BKN030 TX22/0813Z TN15/0818Z BECMG 0811/0813 SCT040 BECMG 0814/0816 CAVOK

4.000'den fazla havaalanı için hava durumu gözlemleri ve tahminleri (METAR ve TAF raporları).

Kullanılabilir istasyonlar harita üzerinde sarı ve kırmızı noktalarla gösterilir.

İstasyonun adını görmek için fareyi noktanın üzerinde gezdirin.

Sonrasında hava gözlem ve tahminlerini görmek için tıklayın.

Haritayı değiştirmek için: yaklaştırmak için siyah artı işaretli yeşil düğmeye ve uzaklaştırmak için de eksi işaretli düğmeye hızla tıklayın; bitişik haritalar için yeşil okları kullanın.


METAR-TAF: